createdAt,value
2018-07-24T00:02:14.309Z,81.01
2018-07-24T00:04:42.874Z,81.18
2018-07-24T00:07:11.446Z,81.75
2018-07-24T00:09:40.051Z,82.24
2018-07-24T00:12:08.573Z,82.95
2018-07-24T00:14:37.309Z,83.56
2018-07-24T00:17:05.798Z,84.12
2018-07-24T00:19:34.287Z,84.16
2018-07-24T00:22:02.839Z,84.33
2018-07-24T00:24:31.477Z,84.98
2018-07-24T00:27:00.177Z,85.32
2018-07-24T00:29:28.710Z,85.91
2018-07-24T00:31:57.814Z,85.88
2018-07-24T00:34:26.278Z,86.56
2018-07-24T00:36:54.762Z,88.07
2018-07-24T00:39:23.218Z,87.40
2018-07-24T00:41:52.038Z,87.42
2018-07-24T00:44:20.575Z,87.20
2018-07-24T00:46:49.110Z,87.16
2018-07-24T00:49:17.745Z,86.87
2018-07-24T00:51:46.639Z,87.63
2018-07-24T00:54:15.300Z,88.20
2018-07-24T00:56:48.679Z,88.19
2018-07-24T00:59:17.146Z,88.29
2018-07-24T01:01:45.678Z,88.68
2018-07-24T01:04:14.249Z,88.59
2018-07-24T01:06:42.813Z,88.61
2018-07-24T01:09:11.951Z,88.81
2018-07-24T01:11:40.986Z,89.09
2018-07-24T01:14:10.125Z,89.45
2018-07-24T01:16:38.790Z,89.83
2018-07-24T01:19:07.405Z,90.21
2018-07-24T01:21:36.064Z,90.46
2018-07-24T01:24:04.638Z,90.31
2018-07-24T01:26:33.153Z,90.63
2018-07-24T01:29:01.842Z,90.89
2018-07-24T01:31:30.393Z,91.28
2018-07-24T01:33:59.186Z,91.48
2018-07-24T01:36:27.653Z,91.82
2018-07-24T01:38:56.253Z,91.75
2018-07-24T01:41:25.374Z,91.33
2018-07-24T01:43:53.888Z,91.04
2018-07-24T01:46:22.577Z,91.92
2018-07-24T01:48:51.938Z,92.86
2018-07-24T01:51:20.750Z,94.24
2018-07-24T01:53:49.250Z,95.54
2018-07-24T02:02:41.394Z,96.72
2018-07-24T02:05:11.357Z,97.64
2018-07-24T02:07:40.118Z,96.84
2018-07-24T02:10:08.606Z,95.96
2018-07-24T02:12:37.291Z,95.26
2018-07-24T02:15:06.793Z,94.98
2018-07-24T02:17:36.089Z,95.12
2018-07-24T02:20:05.047Z,95.19
2018-07-24T02:22:33.641Z,95.79
2018-07-24T02:25:02.346Z,96.11
2018-07-24T02:27:31.858Z,96.20
2018-07-24T02:30:00.657Z,95.95
2018-07-24T02:32:29.365Z,96.49
2018-07-24T02:34:58.378Z,96.07
2018-07-24T02:37:26.989Z,95.50
2018-07-24T02:39:55.544Z,95.42
2018-07-24T02:42:24.755Z,95.51
2018-07-24T02:44:53.334Z,96.13
2018-07-24T02:47:21.765Z,96.49
2018-07-24T02:49:50.400Z,96.52
2018-07-24T02:52:18.879Z,96.81
2018-07-24T02:54:47.375Z,97.62
2018-07-24T02:57:15.908Z,97.41
2018-07-24T02:59:44.554Z,97.72
2018-07-24T03:02:13.115Z,98.54
2018-07-24T03:04:41.698Z,98.99
2018-07-24T03:07:10.474Z,98.82
2018-07-24T03:09:39.088Z,98.09
2018-07-24T03:12:07.680Z,98.60
2018-07-24T03:14:36.232Z,98.70
2018-07-24T03:17:04.781Z,98.98
2018-07-24T03:19:33.539Z,99.86
2018-07-24T03:22:02.059Z,100.00
2018-07-24T03:24:30.625Z,100.00
2018-07-24T03:26:59.266Z,100.00
2018-07-24T03:29:27.823Z,100.00
2018-07-24T03:31:56.444Z,100.00
2018-07-24T03:34:25.027Z,100.00
2018-07-24T03:36:53.738Z,100.00
2018-07-24T03:39:22.331Z,100.00
2018-07-24T03:41:51.226Z,100.00
2018-07-24T03:44:20.702Z,100.00
2018-07-24T03:46:49.327Z,100.00
2018-07-24T03:49:17.992Z,100.00
2018-07-24T03:51:46.572Z,100.00
2018-07-24T03:54:15.056Z,100.00
2018-07-24T03:56:43.562Z,100.00
2018-07-24T03:59:12.151Z,100.00
2018-07-24T04:01:40.694Z,100.00
2018-07-24T04:04:09.146Z,100.00
2018-07-24T04:06:37.838Z,100.00
2018-07-24T04:09:08.643Z,100.00
2018-07-24T04:11:37.693Z,100.00
2018-07-24T04:14:06.150Z,100.00
2018-07-24T04:16:34.817Z,100.00
2018-07-24T04:19:03.335Z,100.00
2018-07-24T04:21:31.927Z,100.00
2018-07-24T04:24:00.385Z,100.00
2018-07-24T04:26:28.885Z,100.00
2018-07-24T04:28:57.575Z,100.00
2018-07-24T04:31:26.089Z,100.00
2018-07-24T04:33:54.662Z,100.00
2018-07-24T04:36:23.155Z,100.00
2018-07-24T04:38:51.673Z,100.00
2018-07-24T04:41:20.338Z,100.00
2018-07-24T04:43:48.864Z,100.00
2018-07-24T04:46:17.718Z,100.00
2018-07-24T04:48:46.297Z,100.00
2018-07-24T04:51:15.004Z,100.00
2018-07-24T04:53:44.287Z,100.00
2018-07-24T04:56:12.967Z,100.00
2018-07-24T04:58:41.562Z,100.00
2018-07-24T05:01:10.202Z,99.99
2018-07-24T05:03:38.689Z,100.00
2018-07-24T05:06:07.211Z,98.73
2018-07-24T05:08:35.719Z,97.85
2018-07-24T05:11:04.242Z,97.85
2018-07-24T05:13:32.714Z,96.99
2018-07-24T05:16:01.335Z,96.39
2018-07-24T05:18:29.942Z,96.47
2018-07-24T05:20:58.491Z,96.65
2018-07-24T05:23:27.393Z,96.21
2018-07-24T05:25:56.549Z,95.41
2018-07-24T05:28:25.406Z,94.99
2018-07-24T05:30:53.965Z,94.63
2018-07-24T05:33:22.515Z,94.33
2018-07-24T05:35:51.034Z,93.32
2018-07-24T05:38:19.589Z,92.79
2018-07-24T05:40:48.342Z,92.47
2018-07-24T05:43:16.853Z,92.74
2018-07-24T05:45:45.358Z,91.97
2018-07-24T05:48:14.118Z,91.46
2018-07-24T05:50:42.838Z,90.73
2018-07-24T05:53:11.455Z,90.01
2018-07-24T05:55:39.962Z,89.01
2018-07-24T05:58:08.438Z,88.87
2018-07-24T06:00:36.945Z,89.09
2018-07-24T06:03:05.435Z,88.80
2018-07-24T06:05:33.989Z,88.13
2018-07-24T06:08:03.766Z,87.48
2018-07-24T06:10:32.341Z,86.99
2018-07-24T06:13:00.872Z,86.67
2018-07-24T06:15:29.329Z,86.63
2018-07-24T06:17:57.907Z,86.14
2018-07-24T06:20:26.700Z,85.35
2018-07-24T06:22:55.457Z,84.55
2018-07-24T06:25:24.280Z,85.26
2018-07-24T06:27:52.792Z,84.93
2018-07-24T06:30:21.272Z,84.08
2018-07-24T06:32:49.790Z,84.33
2018-07-24T06:35:18.343Z,83.47
2018-07-24T06:37:46.923Z,83.22
2018-07-24T06:40:15.405Z,83.26
2018-07-24T06:42:43.900Z,81.82
2018-07-24T06:45:12.470Z,81.24
2018-07-24T06:47:41.099Z,80.64
2018-07-24T06:50:09.702Z,79.61
2018-07-24T06:52:38.502Z,79.33
2018-07-24T06:55:07.090Z,79.36
2018-07-24T06:57:35.695Z,79.90
2018-07-24T07:00:04.341Z,77.67
2018-07-24T07:02:32.909Z,77.61
2018-07-24T07:05:02.016Z,77.74
2018-07-24T07:07:30.622Z,77.41
2018-07-24T07:09:59.102Z,76.18
2018-07-24T07:12:27.950Z,74.91
2018-07-24T07:14:56.590Z,74.37
2018-07-24T07:17:25.084Z,74.07
2018-07-24T07:19:53.582Z,74.79
2018-07-24T07:22:22.147Z,74.17
2018-07-24T07:24:50.632Z,73.38
2018-07-24T07:27:19.210Z,73.29
2018-07-24T07:29:47.729Z,73.39
2018-07-24T07:32:16.440Z,73.10
2018-07-24T07:34:44.943Z,72.07
2018-07-24T07:37:13.438Z,71.32
2018-07-24T07:39:42.099Z,71.33
2018-07-24T07:42:10.830Z,70.89
2018-07-24T07:44:39.299Z,69.94
2018-07-24T07:47:08.119Z,69.54
2018-07-24T07:49:36.746Z,68.20
2018-07-24T07:52:05.303Z,67.43
2018-07-24T07:54:33.831Z,67.40
2018-07-24T07:57:02.307Z,66.77
2018-07-24T07:59:30.843Z,66.01
2018-07-24T08:01:59.655Z,65.63
2018-07-24T08:04:28.228Z,65.77
2018-07-24T08:06:57.118Z,65.67
2018-07-24T08:09:25.653Z,64.55
2018-07-24T08:11:54.474Z,64.82
2018-07-24T08:14:23.234Z,63.75
2018-07-24T08:16:51.955Z,63.94
2018-07-24T08:19:20.603Z,62.86
2018-07-24T08:21:49.171Z,62.29
2018-07-24T08:24:17.715Z,62.68
2018-07-24T08:26:46.345Z,61.45
2018-07-24T08:29:14.849Z,60.88
2018-07-24T08:31:43.475Z,61.37
2018-07-24T08:34:11.996Z,61.20
2018-07-24T08:36:40.459Z,60.22
2018-07-24T08:39:11.162Z,60.50
2018-07-24T08:41:39.921Z,59.92
2018-07-24T08:44:08.540Z,58.68
2018-07-24T08:46:37.106Z,58.06
2018-07-24T08:49:06.923Z,57.73
2018-07-24T08:51:35.357Z,57.91
2018-07-24T08:54:04.161Z,57.13
2018-07-24T08:56:32.550Z,56.27
2018-07-24T08:59:01.159Z,55.01
2018-07-24T09:01:29.814Z,53.46
2018-07-24T09:03:58.455Z,52.21
2018-07-24T09:06:26.962Z,50.72
2018-07-24T09:08:56.102Z,49.34
2018-07-24T09:11:24.657Z,49.78
2018-07-24T09:13:53.306Z,49.02
2018-07-24T09:16:21.858Z,48.21
2018-07-24T09:18:50.485Z,47.42
2018-07-24T09:21:18.994Z,46.56
2018-07-24T09:23:47.562Z,46.17
2018-07-24T09:26:16.067Z,46.77
2018-07-24T09:28:44.658Z,44.86
2018-07-24T09:31:13.221Z,43.32
2018-07-24T09:33:41.935Z,41.46
2018-07-24T09:36:10.519Z,42.10
2018-07-24T09:38:39.030Z,42.12
2018-07-24T09:41:07.570Z,41.41
2018-07-24T09:43:36.026Z,40.73
2018-07-24T09:46:04.567Z,41.21
2018-07-24T09:48:33.198Z,39.98
2018-07-24T09:51:01.793Z,39.57
2018-07-24T09:53:30.582Z,37.60
2018-07-24T09:55:59.292Z,36.19
2018-07-24T09:58:27.811Z,35.62
2018-07-24T10:01:01.712Z,34.79
2018-07-24T10:03:30.213Z,33.54
2018-07-24T10:05:58.723Z,33.75
2018-07-24T10:08:27.605Z,32.83
2018-07-24T10:10:56.600Z,32.73
2018-07-24T10:13:25.122Z,31.22
2018-07-24T10:15:53.820Z,30.96
2018-07-24T10:18:22.290Z,30.97
2018-07-24T10:20:50.861Z,30.15
2018-07-24T10:23:19.451Z,28.44
2018-07-24T10:25:48.160Z,29.57
2018-07-24T10:28:16.771Z,29.87
2018-07-24T10:30:45.432Z,29.75
2018-07-24T10:33:14.022Z,27.26
2018-07-24T10:35:42.619Z,30.34
2018-07-24T10:38:11.151Z,28.70
2018-07-24T10:40:39.963Z,27.68
2018-07-24T10:43:08.678Z,27.31
2018-07-24T10:45:37.218Z,25.93
2018-07-24T10:48:05.794Z,25.41
2018-07-24T10:50:34.299Z,26.49
2018-07-24T10:53:02.970Z,25.23
2018-07-24T10:55:31.500Z,23.74
2018-07-24T10:58:00.307Z,24.74
2018-07-24T11:00:28.942Z,23.74
2018-07-24T11:02:57.534Z,23.62
2018-07-24T11:05:26.019Z,22.68
2018-07-24T11:07:56.610Z,23.18
2018-07-24T11:10:25.058Z,22.84
2018-07-24T11:12:53.792Z,22.67
2018-07-24T11:15:22.573Z,21.34
2018-07-24T11:17:51.146Z,21.79
2018-07-24T11:20:19.728Z,22.13
2018-07-24T11:22:48.886Z,20.86
2018-07-24T11:25:17.156Z,21.12
2018-07-24T11:27:45.798Z,21.51
2018-07-24T11:30:14.353Z,20.00
2018-07-24T11:32:42.830Z,20.24
2018-07-24T11:35:11.439Z,20.76
2018-07-24T11:37:40.031Z,19.42
2018-07-24T11:40:08.642Z,19.60
2018-07-24T11:42:37.261Z,18.15
2018-07-24T11:45:06.610Z,18.78
2018-07-24T11:47:35.299Z,17.40
2018-07-24T11:50:03.932Z,17.22
2018-07-24T11:52:32.558Z,17.96
2018-07-24T11:55:01.116Z,16.38
2018-07-24T11:57:29.658Z,16.88
2018-07-24T11:59:58.145Z,15.29
2018-07-24T12:02:26.806Z,15.74
2018-07-24T12:04:55.384Z,16.14
2018-07-24T12:07:23.933Z,17.00
2018-07-24T12:09:52.473Z,16.25
2018-07-24T12:12:21.001Z,16.77
2018-07-24T12:14:50.574Z,14.09
2018-07-24T12:17:19.203Z,13.63
2018-07-24T12:19:47.743Z,14.74
2018-07-24T12:22:16.261Z,13.62
2018-07-24T12:24:44.759Z,13.30
2018-07-24T12:27:13.368Z,12.91
2018-07-24T12:29:41.958Z,13.52
2018-07-24T12:32:10.599Z,13.51
2018-07-24T12:34:39.311Z,12.64
2018-07-24T12:37:07.862Z,13.10
2018-07-24T12:39:40.886Z,12.58
2018-07-24T12:42:09.373Z,11.71
2018-07-24T12:44:37.846Z,13.21
2018-07-24T12:47:06.681Z,13.22
2018-07-24T12:49:35.216Z,13.06
2018-07-24T12:52:03.768Z,12.41
2018-07-24T12:54:32.233Z,13.00
2018-07-24T12:57:00.736Z,12.25
2018-07-24T12:59:29.213Z,11.21
2018-07-24T13:01:57.800Z,11.09
2018-07-24T13:04:26.290Z,11.44
2018-07-24T13:06:54.814Z,10.18
2018-07-24T13:09:23.397Z,9.61
2018-07-24T13:11:51.946Z,9.86
2018-07-24T13:14:20.498Z,10.94
2018-07-24T13:16:49.123Z,9.54
2018-07-24T13:19:17.786Z,10.60
2018-07-24T13:21:46.403Z,8.81
2018-07-24T13:24:15.003Z,9.71
2018-07-24T13:26:43.530Z,9.41
2018-07-24T13:29:12.043Z,8.67
2018-07-24T13:31:40.606Z,8.58
2018-07-24T13:34:09.265Z,8.31
2018-07-24T13:36:37.742Z,9.97
2018-07-24T13:39:09.042Z,10.12
2018-07-24T13:41:37.595Z,10.55
2018-07-24T13:44:06.206Z,9.88
2018-07-24T13:46:38.778Z,10.55
2018-07-24T13:49:07.431Z,9.92
2018-07-24T13:51:36.051Z,10.16
2018-07-24T13:54:04.841Z,11.82
2018-07-24T13:56:33.472Z,13.15
2018-07-24T13:59:02.251Z,12.94
2018-07-24T14:01:30.678Z,11.47
2018-07-24T14:03:59.146Z,10.35
2018-07-24T14:06:27.643Z,9.01
2018-07-24T14:08:56.202Z,9.65
2018-07-24T14:11:24.753Z,10.65
2018-07-24T14:13:53.396Z,10.15
2018-07-24T14:16:21.926Z,10.73
2018-07-24T14:18:50.614Z,10.01
2018-07-24T14:21:19.170Z,11.17
2018-07-24T14:23:47.745Z,13.65
2018-07-24T14:26:16.856Z,16.27
2018-07-24T14:28:45.410Z,18.83
2018-07-24T14:31:13.933Z,17.29
2018-07-24T14:33:42.467Z,14.06
2018-07-24T14:36:11.209Z,11.17
2018-07-24T14:38:39.737Z,8.89
2018-07-24T14:41:08.377Z,8.42
2018-07-24T14:43:36.974Z,7.32
2018-07-24T14:46:05.520Z,8.04
2018-07-24T14:48:34.215Z,8.93
2018-07-24T14:51:02.806Z,9.32
2018-07-24T14:53:31.823Z,9.01
2018-07-24T14:56:00.367Z,10.75
2018-07-24T14:58:28.914Z,10.23
2018-07-24T15:00:57.538Z,10.62
2018-07-24T15:03:26.106Z,12.47
2018-07-24T15:05:54.606Z,11.63
2018-07-24T15:08:23.506Z,11.99
2018-07-24T15:10:54.515Z,12.17
2018-07-24T15:13:23.573Z,15.34
2018-07-24T15:15:52.325Z,17.23
2018-07-24T15:18:21.027Z,18.09
2018-07-24T15:20:49.619Z,19.92
2018-07-24T15:23:18.218Z,19.72
2018-07-24T15:27:05.900Z,17.57
2018-07-24T15:29:34.505Z,18.28
2018-07-24T15:32:03.291Z,21.30
2018-07-24T15:34:31.875Z,23.35
2018-07-24T15:37:00.397Z,22.88
2018-07-24T15:39:28.897Z,21.23
2018-07-24T15:41:57.390Z,19.21
2018-07-24T15:44:26.030Z,17.55
2018-07-24T15:46:54.612Z,17.66
2018-07-24T15:49:23.114Z,20.55
2018-07-24T15:51:51.999Z,21.26
2018-07-24T15:54:20.502Z,20.33
2018-07-24T15:56:49.017Z,18.49
2018-07-24T15:59:17.546Z,16.29
2018-07-24T16:01:46.218Z,17.59
2018-07-24T16:04:14.786Z,19.15
2018-07-24T16:06:43.347Z,18.00
2018-07-24T16:09:13.286Z,17.88
2018-07-24T16:11:41.942Z,17.17
2018-07-24T16:14:10.975Z,18.67
2018-07-24T16:16:39.658Z,14.87
2018-07-24T16:19:08.389Z,14.27
2018-07-24T16:21:36.977Z,15.00
2018-07-24T16:24:05.682Z,16.98
2018-07-24T16:26:34.206Z,15.81
2018-07-24T16:29:02.711Z,16.08
2018-07-24T16:31:31.270Z,18.55
2018-07-24T16:33:59.797Z,16.10
2018-07-24T16:36:28.306Z,15.91
2018-07-24T16:38:57.181Z,15.41
2018-07-24T16:41:25.958Z,16.22
2018-07-24T16:43:54.602Z,16.14
2018-07-24T16:46:23.114Z,16.68
2018-07-24T16:48:51.706Z,16.08
2018-07-24T16:51:23.984Z,16.44
2018-07-24T16:53:52.714Z,19.01
2018-07-24T16:56:21.396Z,21.98
2018-07-24T16:58:50.425Z,23.28
2018-07-24T17:01:19.249Z,23.60
2018-07-24T17:03:47.795Z,22.72
2018-07-24T17:06:16.385Z,21.08
2018-07-24T17:08:45.071Z,18.71
2018-07-24T17:11:13.677Z,19.27
2018-07-24T17:13:42.280Z,19.64
2018-07-24T17:16:10.825Z,21.12
2018-07-24T17:18:39.354Z,22.66
2018-07-24T17:21:07.938Z,22.59
2018-07-24T17:23:36.568Z,21.73
2018-07-24T17:26:05.183Z,21.84
2018-07-24T17:28:33.880Z,22.96
2018-07-24T17:31:02.499Z,23.68
2018-07-24T17:33:31.059Z,23.00
2018-07-24T17:35:59.869Z,22.72
2018-07-24T17:38:28.399Z,22.76
2018-07-24T17:40:57.126Z,22.63
2018-07-24T17:43:25.719Z,25.42
2018-07-24T17:45:54.408Z,27.34
2018-07-24T17:48:23.104Z,26.04
2018-07-24T17:50:51.849Z,25.65
2018-07-24T17:53:21.035Z,24.24
2018-07-24T17:55:49.604Z,25.44
2018-07-24T17:58:18.429Z,27.41
2018-07-24T18:00:47.054Z,29.89
2018-07-24T18:03:15.701Z,31.39
2018-07-24T18:05:44.297Z,33.28
2018-07-24T18:08:13.041Z,34.38
2018-07-24T18:10:41.554Z,35.89
2018-07-24T18:13:10.070Z,36.05
2018-07-24T18:15:38.635Z,36.65
2018-07-24T18:18:07.250Z,36.99
2018-07-24T18:20:35.795Z,37.39
2018-07-24T18:23:04.349Z,37.53
2018-07-24T18:25:32.919Z,38.71
2018-07-24T18:28:01.462Z,38.23
2018-07-24T18:30:30.025Z,38.15
2018-07-24T18:32:58.511Z,38.80
2018-07-24T18:35:27.033Z,39.27
2018-07-24T18:37:55.675Z,38.90
2018-07-24T18:45:13.295Z,40.53
2018-07-24T18:47:42.131Z,41.27
2018-07-24T18:50:10.751Z,41.79
2018-07-24T18:52:39.206Z,43.88
2018-07-24T18:55:07.761Z,46.50
2018-07-24T18:57:36.274Z,51.81
2018-07-24T19:00:05.175Z,55.02
2018-07-24T19:02:34.358Z,52.75
2018-07-24T19:05:03.066Z,55.09
2018-07-24T19:07:31.522Z,52.94
2018-07-24T19:10:00.008Z,54.95
2018-07-24T19:12:28.541Z,53.80
2018-07-24T19:14:57.138Z,54.96
2018-07-24T19:17:25.670Z,54.95
2018-07-24T19:19:54.458Z,54.41
2018-07-24T19:22:22.993Z,54.84
2018-07-24T19:24:51.568Z,55.16
2018-07-24T19:27:20.129Z,56.03
2018-07-24T19:29:48.699Z,54.67
2018-07-24T19:32:17.207Z,55.78
2018-07-24T19:34:45.837Z,54.58
2018-07-24T19:37:14.326Z,54.97
2018-07-24T19:39:42.839Z,55.41
2018-07-24T19:42:11.391Z,55.06
2018-07-24T19:44:39.912Z,55.34
2018-07-24T19:47:08.530Z,56.14
2018-07-24T19:49:37.125Z,55.97
2018-07-24T19:52:05.636Z,57.41
2018-07-24T19:54:34.247Z,56.45
2018-07-24T19:57:02.826Z,56.78
2018-07-24T19:59:31.294Z,56.64
2018-07-24T20:01:59.899Z,56.90
2018-07-24T20:04:28.357Z,56.55
2018-07-24T20:06:56.954Z,57.62
2018-07-24T20:09:25.428Z,57.65
2018-07-24T20:11:54.126Z,58.12
2018-07-24T20:14:22.619Z,58.14
2018-07-24T20:16:51.293Z,57.45
2018-07-24T20:19:19.741Z,57.77
2018-07-24T20:21:48.214Z,58.47
2018-07-24T20:24:16.801Z,59.36
2018-07-24T20:26:45.366Z,58.73
2018-07-24T20:29:13.882Z,59.08
2018-07-24T20:31:43.414Z,59.95
2018-07-24T20:34:12.156Z,59.01
2018-07-24T20:36:40.938Z,60.20
2018-07-24T20:39:11.168Z,60.18
2018-07-24T20:41:39.989Z,59.98
2018-07-24T20:44:08.941Z,59.69
2018-07-24T20:46:37.640Z,59.80
2018-07-24T20:49:06.423Z,60.34
2018-07-24T20:51:35.150Z,59.75
2018-07-24T20:54:03.866Z,60.08
2018-07-24T20:56:32.484Z,60.79
2018-07-24T20:59:01.045Z,61.32
2018-07-24T21:01:29.666Z,61.54
2018-07-24T21:03:58.179Z,61.49
2018-07-24T21:06:26.747Z,61.59
2018-07-24T21:08:55.275Z,60.77
2018-07-24T21:11:23.862Z,61.08
2018-07-24T21:13:52.494Z,61.80
2018-07-24T21:16:21.106Z,61.85
2018-07-24T21:18:50.219Z,61.19
2018-07-24T21:21:18.787Z,61.40
2018-07-24T21:23:47.290Z,61.19
2018-07-24T21:26:15.910Z,61.53
2018-07-24T21:28:44.778Z,61.31
2018-07-24T21:31:13.303Z,62.03
2018-07-24T21:33:41.790Z,63.00
2018-07-24T21:36:10.587Z,62.16
2018-07-24T21:38:39.073Z,62.48
2018-07-24T21:41:07.673Z,62.94
2018-07-24T21:43:36.296Z,63.51
2018-07-24T21:46:04.795Z,63.12
2018-07-24T21:48:33.330Z,64.01
2018-07-24T21:51:01.874Z,64.67
2018-07-24T21:53:30.407Z,64.63
2018-07-24T21:55:58.933Z,64.79
2018-07-24T21:58:27.561Z,65.49
2018-07-24T22:01:01.330Z,65.46
2018-07-24T22:03:29.866Z,65.65
2018-07-24T22:05:58.541Z,66.82
2018-07-24T22:08:27.178Z,67.26
2018-07-24T22:10:55.781Z,68.23
2018-07-24T22:13:24.262Z,69.19
2018-07-24T22:15:52.743Z,70.25
2018-07-24T22:18:21.287Z,69.10
2018-07-24T22:20:49.797Z,68.70
2018-07-24T22:23:18.354Z,68.51
2018-07-24T22:25:46.966Z,68.47
2018-07-24T22:28:15.455Z,69.08
2018-07-24T22:30:43.921Z,68.19
2018-07-24T22:33:12.490Z,68.14
2018-07-24T22:35:41.012Z,67.98
2018-07-24T22:38:09.550Z,69.56
2018-07-24T22:40:38.126Z,69.35
2018-07-24T22:43:06.770Z,69.57
2018-07-24T22:45:35.395Z,69.19
2018-07-24T22:48:04.083Z,70.22
2018-07-24T22:50:32.626Z,69.69
2018-07-24T22:53:01.158Z,70.49
2018-07-24T22:55:29.718Z,69.99
2018-07-24T22:57:58.214Z,69.89
2018-07-24T23:00:29.286Z,70.33
2018-07-24T23:02:58.001Z,69.22
2018-07-24T23:05:26.619Z,68.25
2018-07-24T23:07:55.263Z,67.26
2018-07-24T23:10:30.273Z,67.29
2018-07-24T23:12:58.870Z,67.14
2018-07-24T23:15:27.385Z,67.66
2018-07-24T23:17:56.958Z,67.24
2018-07-24T23:20:26.075Z,66.73
2018-07-24T23:22:54.603Z,66.87
2018-07-24T23:25:24.589Z,68.39
2018-07-24T23:27:53.485Z,68.87
2018-07-24T23:30:22.111Z,69.01
2018-07-24T23:32:50.590Z,70.53
2018-07-24T23:35:19.134Z,71.46
2018-07-24T23:37:47.662Z,72.26
2018-07-24T23:40:16.250Z,72.65
2018-07-24T23:42:44.750Z,73.74
2018-07-24T23:45:13.292Z,73.82
2018-07-24T23:47:41.860Z,75.12
2018-07-24T23:50:10.460Z,76.13
2018-07-24T23:52:39.246Z,75.54
2018-07-24T23:55:07.835Z,76.10
2018-07-24T23:57:36.393Z,75.56
